sensor_id;sensor_type;location;lat;lon;timestamp;temperature;humidity
15048;DHT22;7621;52.350;13.308;2022-12-05T17:00:45;6.20;99.90
15048;DHT22;7621;52.350;13.308;2022-12-05T17:03:11;6.20;99.90
15048;DHT22;7621;52.350;13.308;2022-12-05T17:05:37;6.20;99.90
15048;DHT22;7621;52.350;13.308;2022-12-05T17:08:03;6.30;99.90
15048;DHT22;7621;52.350;13.308;2022-12-05T17:10:28;6.30;99.90
15048;DHT22;7621;52.350;13.308;2022-12-05T17:12:54;6.30;99.90
15048;DHT22;7621;52.350;13.308;2022-12-05T17:15:19;6.20;99.90
15048;DHT22;7621;52.350;13.308;2022-12-05T17:17:45;6.20;99.90
15048;DHT22;7621;52.350;13.308;2022-12-05T17:20:11;6.30;99.90
15048;DHT22;7621;52.350;13.308;2022-12-05T17:22:38;6.30;99.90
15048;DHT22;7621;52.350;13.308;2022-12-05T17:25:29;6.30;99.90
15048;DHT22;7621;52.350;13.308;2022-12-05T17:27:56;6.30;99.90
15048;DHT22;7621;52.350;13.308;2022-12-05T17:30:23;6.30;99.90
15048;DHT22;7621;52.350;13.308;2022-12-05T17:32:49;6.30;99.90
15048;DHT22;7621;52.350;13.308;2022-12-05T17:35:16;6.30;99.90
15048;DHT22;7621;52.350;13.308;2022-12-05T17:37:42;6.30;99.90
15048;DHT22;7621;52.350;13.308;2022-12-05T17:40:08;6.40;99.90
15048;DHT22;7621;52.350;13.308;2022-12-05T17:42:34;6.40;99.90
15048;DHT22;7621;52.350;13.308;2022-12-05T17:44:59;6.40;99.90
15048;DHT22;7621;52.350;13.308;2022-12-05T17:47:25;6.40;99.90
15048;DHT22;7621;52.350;13.308;2022-12-05T17:49:52;6.40;99.90
15048;DHT22;7621;52.350;13.308;2022-12-05T17:52:17;6.40;99.90
15048;DHT22;7621;52.350;13.308;2022-12-05T17:54:43;6.40;99.90
15048;DHT22;7621;52.350;13.308;2022-12-05T17:57:08;6.40;99.90
15048;DHT22;7621;52.350;13.308;2022-12-05T17:59:34;6.30;99.90
15048;DHT22;7621;52.350;13.308;2022-12-05T18:01:59;6.30;99.90
15048;DHT22;7621;52.350;13.308;2022-12-05T18:04:25;6.30;99.90
15048;DHT22;7621;52.350;13.308;2022-12-05T18:06:50;6.30;99.90
15048;DHT22;7621;52.350;13.308;2022-12-05T18:09:16;6.30;99.90
15048;DHT22;7621;52.350;13.308;2022-12-05T18:11:42;6.30;99.90
15048;DHT22;7621;52.350;13.308;2022-12-05T18:14:07;6.30;99.90
15048;DHT22;7621;52.350;13.308;2022-12-05T18:16:34;6.30;99.90
15048;DHT22;7621;52.350;13.308;2022-12-05T18:18:59;6.30;99.90
15048;DHT22;7621;52.350;13.308;2022-12-05T18:21:26;6.20;99.90
15048;DHT22;7621;52.350;13.308;2022-12-05T18:23:51;6.20;99.90
15048;DHT22;7621;52.350;13.308;2022-12-05T18:26:17;6.20;99.90
15048;DHT22;7621;52.350;13.308;2022-12-05T18:28:43;6.20;99.90
15048;DHT22;7621;52.350;13.308;2022-12-05T18:31:12;6.20;99.90
15048;DHT22;7621;52.350;13.308;2022-12-05T18:33:39;6.10;99.90
15048;DHT22;7621;52.350;13.308;2022-12-05T18:36:10;6.10;99.90
15048;DHT22;7621;52.350;13.308;2022-12-05T18:38:37;6.10;99.90
15048;DHT22;7621;52.350;13.308;2022-12-05T18:41:03;6.10;99.90
15048;DHT22;7621;52.350;13.308;2022-12-05T18:43:30;6.10;99.90
15048;DHT22;7621;52.350;13.308;2022-12-05T18:45:57;6.10;99.90
15048;DHT22;7621;52.350;13.308;2022-12-05T18:48:23;6.10;99.90
15048;DHT22;7621;52.350;13.308;2022-12-05T18:50:50;6.10;99.90
15048;DHT22;7621;52.350;13.308;2022-12-05T18:53:16;6.00;99.90
15048;DHT22;7621;52.350;13.308;2022-12-05T18:55:41;6.10;99.90
15048;DHT22;7621;52.350;13.308;2022-12-05T18:58:07;6.00;99.90
15048;DHT22;7621;52.350;13.308;2022-12-05T19:00:33;6.00;99.90
15048;DHT22;7621;52.350;13.308;2022-12-05T19:02:59;6.10;99.90
15048;DHT22;7621;52.350;13.308;2022-12-05T19:05:24;6.00;99.90
15048;DHT22;7621;52.350;13.308;2022-12-05T19:07:53;6.00;99.90
15048;DHT22;7621;52.350;13.308;2022-12-05T19:10:19;6.00;99.90
15048;DHT22;7621;52.350;13.308;2022-12-05T19:12:44;6.00;99.90
15048;DHT22;7621;52.350;13.308;2022-12-05T19:15:10;6.00;99.90
15048;DHT22;7621;52.350;13.308;2022-12-05T19:17:36;6.00;99.90
15048;DHT22;7621;52.350;13.308;2022-12-05T19:20:02;6.00;99.90
15048;DHT22;7621;52.350;13.308;2022-12-05T19:22:28;6.00;99.90
15048;DHT22;7621;52.350;13.308;2022-12-05T19:24:54;5.90;99.90
15048;DHT22;7621;52.350;13.308;2022-12-05T19:27:21;5.90;99.90
15048;DHT22;7621;52.350;13.308;2022-12-05T19:29:46;5.90;99.90
15048;DHT22;7621;52.350;13.308;2022-12-05T19:32:12;5.90;99.90
15048;DHT22;7621;52.350;13.308;2022-12-05T19:34:37;5.90;99.90
15048;DHT22;7621;52.350;13.308;2022-12-05T19:37:03;5.90;99.90
15048;DHT22;7621;52.350;13.308;2022-12-05T19:39:28;5.90;99.90
15048;DHT22;7621;52.350;13.308;2022-12-05T19:41:55;5.90;99.90
15048;DHT22;7621;52.350;13.308;2022-12-05T19:44:23;5.90;99.90
15048;DHT22;7621;52.350;13.308;2022-12-05T19:46:49;5.90;99.90
15048;DHT22;7621;52.350;13.308;2022-12-05T19:49:15;5.90;99.90
15048;DHT22;7621;52.350;13.308;2022-12-05T19:51:42;5.80;99.90
15048;DHT22;7621;52.350;13.308;2022-12-05T19:54:10;5.80;99.90
15048;DHT22;7621;52.350;13.308;2022-12-05T19:56:36;5.80;99.90
15048;DHT22;7621;52.350;13.308;2022-12-05T19:59:03;5.80;99.90
15048;DHT22;7621;52.350;13.308;2022-12-05T20:01:31;5.80;99.90
15048;DHT22;7621;52.350;13.308;2022-12-05T20:04:03;5.80;99.90
15048;DHT22;7621;52.350;13.308;2022-12-05T20:06:32;5.80;99.90
15048;DHT22;7621;52.350;13.308;2022-12-05T20:08:58;5.80;99.90
15048;DHT22;7621;52.350;13.308;2022-12-05T20:11:25;5.70;99.90
15048;DHT22;7621;52.350;13.308;2022-12-05T20:13:52;5.70;99.90
15048;DHT22;7621;52.350;13.308;2022-12-05T20:16:19;5.70;99.90
15048;DHT22;7621;52.350;13.308;2022-12-05T20:18:47;5.70;99.90
15048;DHT22;7621;52.350;13.308;2022-12-05T20:21:15;5.70;99.90
15048;DHT22;7621;52.350;13.308;2022-12-05T20:23:41;5.70;99.90
15048;DHT22;7621;52.350;13.308;2022-12-05T20:26:10;5.70;99.90
15048;DHT22;7621;52.350;13.308;2022-12-05T20:28:37;5.70;99.90
15048;DHT22;7621;52.350;13.308;2022-12-05T20:31:20;5.70;99.90
15048;DHT22;7621;52.350;13.308;2022-12-05T20:33:48;5.70;99.90
15048;DHT22;7621;52.350;13.308;2022-12-05T20:36:19;5.70;99.90
15048;DHT22;7621;52.350;13.308;2022-12-05T20:38:45;5.70;99.90
15048;DHT22;7621;52.350;13.308;2022-12-05T20:41:16;5.70;99.90
15048;DHT22;7621;52.350;13.308;2022-12-05T20:43:46;5.60;99.90
